sensor_id;sensor_type;location;lat;lon;timestamp;pressure;altitude;pressure_sealevel;temperature;humidity
75188;BME280;63762;51.334;22.108;2023-06-10T00:03:42;101609.59;;;18.73;73.42
75188;BME280;63762;51.334;22.108;2023-06-10T00:13:49;101616.40;;;18.60;73.78
75188;BME280;63762;51.334;22.108;2023-06-10T00:23:56;101613.30;;;18.55;73.77
75188;BME280;63762;51.334;22.108;2023-06-10T00:34:03;101607.84;;;18.55;73.40
75188;BME280;63762;51.334;22.108;2023-06-10T00:44:11;101609.55;;;18.56;73.31
75188;BME280;63762;51.334;22.108;2023-06-10T00:54:18;101626.47;;;18.59;73.39
75188;BME280;63762;51.334;22.108;2023-06-10T01:04:25;101624.09;;;18.74;72.93
75188;BME280;63762;51.334;22.108;2023-06-10T01:14:32;101617.31;;;18.78;72.36
75188;BME280;63762;51.334;22.108;2023-06-10T01:24:39;101618.64;;;18.74;72.24
75188;BME280;63762;51.334;22.108;2023-06-10T01:34:48;101624.93;;;18.74;72.34
75188;BME280;63762;51.334;22.108;2023-06-10T01:44:53;101626.41;;;18.69;72.66
75188;BME280;63762;51.334;22.108;2023-06-10T01:55:00;101618.15;;;18.61;72.92
75188;BME280;63762;51.334;22.108;2023-06-10T02:05:08;101627.61;;;18.57;73.22
75188;BME280;63762;51.334;22.108;2023-06-10T02:15:15;101639.95;;;18.61;73.35
75188;BME280;63762;51.334;22.108;2023-06-10T02:25:22;101647.11;;;18.62;73.13
75188;BME280;63762;51.334;22.108;2023-06-10T02:35:29;101646.30;;;18.52;73.10
75188;BME280;63762;51.334;22.108;2023-06-10T02:45:36;101665.47;;;18.60;73.58
75188;BME280;63762;51.334;22.108;2023-06-10T02:55:43;101685.51;;;18.68;73.59
75188;BME280;63762;51.334;22.108;2023-06-10T03:05:51;101691.98;;;18.67;73.44
75188;BME280;63762;51.334;22.108;2023-06-10T03:15:57;101710.34;;;18.65;73.22
75188;BME280;63762;51.334;22.108;2023-06-10T03:26:04;101704.95;;;18.56;73.02
75188;BME280;63762;51.334;22.108;2023-06-10T03:36:12;101708.27;;;18.50;73.32
75188;BME280;63762;51.334;22.108;2023-06-10T03:46:19;101724.91;;;18.47;73.83
75188;BME280;63762;51.334;22.108;2023-06-10T03:56:26;101727.34;;;18.50;74.46
75188;BME280;63762;51.334;22.108;2023-06-10T04:06:34;101711.71;;;18.52;75.05
75188;BME280;63762;51.334;22.108;2023-06-10T04:16:40;101704.23;;;18.54;75.27
75188;BME280;63762;51.334;22.108;2023-06-10T04:26:47;101675.56;;;18.50;75.70
75188;BME280;63762;51.334;22.108;2023-06-10T04:36:54;101683.59;;;18.51;75.95
75188;BME280;63762;51.334;22.108;2023-06-10T04:47:01;101689.33;;;18.48;76.10
75188;BME280;63762;51.334;22.108;2023-06-10T04:57:09;101690.21;;;18.49;76.59
75188;BME280;63762;51.334;22.108;2023-06-10T05:07:16;101697.10;;;18.34;77.13
75188;BME280;63762;51.334;22.108;2023-06-10T05:17:23;101704.88;;;18.19;77.87
75188;BME280;63762;51.334;22.108;2023-06-10T05:27:30;101705.79;;;18.01;79.01
75188;BME280;63762;51.334;22.108;2023-06-10T05:37:37;101726.71;;;18.10;79.70
75188;BME280;63762;51.334;22.108;2023-06-10T05:47:44;101730.96;;;18.22;79.89
75188;BME280;63762;51.334;22.108;2023-06-10T05:58:00;101738.40;;;18.48;79.73
75188;BME280;63762;51.334;22.108;2023-06-10T06:08:01;101755.32;;;18.52;78.42
75188;BME280;63762;51.334;22.108;2023-06-10T06:18:06;101750.92;;;18.78;78.27
75188;BME280;63762;51.334;22.108;2023-06-10T06:28:13;101760.86;;;19.06;76.15
75188;BME280;63762;51.334;22.108;2023-06-10T06:38:20;101768.48;;;19.29;75.81
75188;BME280;63762;51.334;22.108;2023-06-10T06:48:27;101768.32;;;19.58;73.80
75188;BME280;63762;51.334;22.108;2023-06-10T06:58:34;101777.97;;;19.70;75.32
75188;BME280;63762;51.334;22.108;2023-06-10T07:08:42;101773.77;;;20.28;73.08
75188;BME280;63762;51.334;22.108;2023-06-10T07:18:48;101785.90;;;21.02;72.18
75188;BME280;63762;51.334;22.108;2023-06-10T07:28:55;101792.05;;;21.38;70.33
75188;BME280;63762;51.334;22.108;2023-06-10T07:39:02;101790.34;;;22.19;68.50
75188;BME280;63762;51.334;22.108;2023-06-10T07:49:10;101791.57;;;23.27;66.23
75188;BME280;63762;51.334;22.108;2023-06-10T07:59:17;101809.70;;;22.89;63.98
75188;BME280;63762;51.334;22.108;2023-06-10T08:09:24;101809.84;;;22.96;62.63
75188;BME280;63762;51.334;22.108;2023-06-10T08:19:31;101811.81;;;23.64;56.96
75188;BME280;63762;51.334;22.108;2023-06-10T08:29:39;101824.01;;;24.23;60.27
75188;BME280;63762;51.334;22.108;2023-06-10T08:39:45;101825.41;;;24.79;58.58
75188;BME280;63762;51.334;22.108;2023-06-10T08:49:53;101828.01;;;25.09;56.15
75188;BME280;63762;51.334;22.108;2023-06-10T09:00:02;101839.85;;;25.32;55.43
75188;BME280;63762;51.334;22.108;2023-06-10T09:10:07;101848.56;;;24.47;55.38
75188;BME280;63762;51.334;22.108;2023-06-10T09:20:14;101845.02;;;24.39;57.26
75188;BME280;63762;51.334;22.108;2023-06-10T09:30:31;101856.29;;;24.74;55.33
75188;BME280;63762;51.334;22.108;2023-06-10T09:40:32;101878.42;;;24.58;55.05
75188;BME280;63762;51.334;22.108;2023-06-10T09:50:43;101875.22;;;24.02;55.35
75188;BME280;63762;51.334;22.108;2023-06-10T10:00:52;101883.38;;;23.32;56.61
75188;BME280;63762;51.334;22.108;2023-06-10T10:10:56;101872.63;;;23.07;57.33
75188;BME280;63762;51.334;22.108;2023-06-10T10:21:02;101888.44;;;22.97;58.43
75188;BME280;63762;51.334;22.108;2023-06-10T10:31:08;101880.33;;;23.27;57.39
75188;BME280;63762;51.334;22.108;2023-06-10T10:41:13;101883.33;;;23.48;55.85
75188;BME280;63762;51.334;22.108;2023-06-10T10:51:18;101888.34;;;23.45;55.43
75188;BME280;63762;51.334;22.108;2023-06-10T11:11:49;101895.59;;;23.30;56.40
75188;BME280;63762;51.334;22.108;2023-06-10T11:21:57;101885.95;;;23.34;54.54
75188;BME280;63762;51.334;22.108;2023-06-10T11:32:04;101878.77;;;23.17;53.94
75188;BME280;63762;51.334;22.108;2023-06-10T11:42:07;101884.73;;;23.36;54.05
75188;BME280;63762;51.334;22.108;2023-06-10T11:52:08;101871.09;;;23.97;51.87
75188;BME280;63762;51.334;22.108;2023-06-10T12:02:17;101873.37;;;23.94;53.16
75188;BME280;63762;51.334;22.108;2023-06-10T12:12:20;101858.59;;;23.56;48.05
75188;BME280;63762;51.334;22.108;2023-06-10T12:22:22;101847.99;;;23.76;50.63
75188;BME280;63762;51.334;22.108;2023-06-10T12:32:35;101838.60;;;24.46;49.42
75188;BME280;63762;51.334;22.108;2023-06-10T12:42:37;101851.88;;;24.20;51.44
75188;BME280;63762;51.334;22.108;2023-06-10T12:52:43;101834.75;;;23.49;52.67
75188;BME280;63762;51.334;22.108;2023-06-10T13:02:51;101840.60;;;23.46;53.28
75188;BME280;63762;51.334;22.108;2023-06-10T13:12:58;101834.88;;;23.01;55.61
75188;BME280;63762;51.334;22.108;2023-06-10T13:23:05;101827.75;;;22.52;56.65
75188;BME280;63762;51.334;22.108;2023-06-10T13:33:12;101809.55;;;22.75;53.34
75188;BME280;63762;51.334;22.108;2023-06-10T13:43:19;101806.70;;;23.23;52.74
75188;BME280;63762;51.334;22.108;2023-06-10T13:53:26;101817.82;;;23.68;52.85
75188;BME280;63762;51.334;22.108;2023-06-10T14:03:33;101824.73;;;24.17;53.02
75188;BME280;63762;51.334;22.108;2023-06-10T14:13:40;101818.91;;;23.51;51.95
75188;BME280;63762;51.334;22.108;2023-06-10T14:23:47;101817.31;;;23.18;53.65
75188;BME280;63762;51.334;22.108;2023-06-10T14:33:54;101800.37;;;23.53;53.25
75188;BME280;63762;51.334;22.108;2023-06-10T14:44:02;101821.38;;;23.38;52.32
75188;BME280;63762;51.334;22.108;2023-06-10T14:54:09;101810.91;;;22.79;54.58
75188;BME280;63762;51.334;22.108;2023-06-10T15:04:16;101814.83;;;22.92;53.84
75188;BME280;63762;51.334;22.108;2023-06-10T15:14:23;101810.78;;;23.19;52.24
75188;BME280;63762;51.334;22.108;2023-06-10T15:24:30;101812.60;;;23.42;50.97
75188;BME280;63762;51.334;22.108;2023-06-10T15:34:40;101807.30;;;23.71;50.90
75188;BME280;63762;51.334;22.108;2023-06-10T15:44:44;101815.25;;;23.66;49.63
75188;BME280;63762;51.334;22.108;2023-06-10T15:54:51;101828.30;;;23.64;50.35
75188;BME280;63762;51.334;22.108;2023-06-10T16:04:59;101828.89;;;23.52;50.68
75188;BME280;63762;51.334;22.108;2023-06-10T16:15:07;101844.20;;;23.77;50.24
75188;BME280;63762;51.334;22.108;2023-06-10T16:25:13;101844.68;;;24.19;48.71
75188;BME280;63762;51.334;22.108;2023-06-10T16:35:20;101854.06;;;24.47;48.58
75188;BME280;63762;51.334;22.108;2023-06-10T16:45:27;101844.10;;;23.93;49.20
75188;BME280;63762;51.334;22.108;2023-06-10T16:55:34;101854.99;;;23.48;49.48
75188;BME280;63762;51.334;22.108;2023-06-10T17:05:41;101860.63;;;23.00;51.52
75188;BME280;63762;51.334;22.108;2023-06-10T17:18:57;101882.27;;;22.87;55.84
75188;BME280;63762;51.334;22.108;2023-06-10T17:29:04;101886.40;;;22.59;56.55
75188;BME280;63762;51.334;22.108;2023-06-10T17:39:11;101891.31;;;22.31;57.75
75188;BME280;63762;51.334;22.108;2023-06-10T17:49:20;101900.88;;;22.11;58.06
75188;BME280;63762;51.334;22.108;2023-06-10T17:59:26;101908.89;;;21.97;58.47
75188;BME280;63762;51.334;22.108;2023-06-10T18:09:33;101910.88;;;21.78;59.12
75188;BME280;63762;51.334;22.108;2023-06-10T18:19:40;101925.18;;;21.64;59.51
75188;BME280;63762;51.334;22.108;2023-06-10T18:29:47;101939.94;;;21.46;60.04
75188;BME280;63762;51.334;22.108;2023-06-10T18:39:54;101950.77;;;21.22;60.47
75188;BME280;63762;51.334;22.108;2023-06-10T18:50:01;101961.59;;;20.88;61.11
75188;BME280;63762;51.334;22.108;2023-06-10T19:00:09;101972.64;;;20.61;62.57
75188;BME280;63762;51.334;22.108;2023-06-10T19:10:16;101981.37;;;20.47;63.29
75188;BME280;63762;51.334;22.108;2023-06-10T19:20:23;101986.81;;;20.30;63.78
75188;BME280;63762;51.334;22.108;2023-06-10T19:30:30;101997.41;;;20.15;64.09
75188;BME280;63762;51.334;22.108;2023-06-10T19:40:37;101992.95;;;19.87;64.72
75188;BME280;63762;51.334;22.108;2023-06-10T19:50:44;101999.80;;;19.64;65.37
75188;BME280;63762;51.334;22.108;2023-06-10T20:00:51;102008.61;;;19.48;66.07
75188;BME280;63762;51.334;22.108;2023-06-10T20:10:58;102015.66;;;19.41;66.46
75188;BME280;63762;51.334;22.108;2023-06-10T20:21:06;102008.93;;;19.17;67.15
75188;BME280;63762;51.334;22.108;2023-06-10T20:31:12;102025.34;;;18.88;67.83
75188;BME280;63762;51.334;22.108;2023-06-10T20:41:20;102029.91;;;18.59;69.34
75188;BME280;63762;51.334;22.108;2023-06-10T20:51:27;102028.16;;;18.49;69.34
75188;BME280;63762;51.334;22.108;2023-06-10T21:01:34;102023.84;;;18.37;69.81
75188;BME280;63762;51.334;22.108;2023-06-10T21:11:41;102031.80;;;18.19;71.32
75188;BME280;63762;51.334;22.108;2023-06-10T21:21:48;102019.74;;;18.22;71.77
75188;BME280;63762;51.334;22.108;2023-06-10T21:31:55;102024.63;;;18.28;72.11
75188;BME280;63762;51.334;22.108;2023-06-10T21:42:03;102031.23;;;18.16;72.10
75188;BME280;63762;51.334;22.108;2023-06-10T21:52:09;102035.59;;;17.98;72.39
75188;BME280;63762;51.334;22.108;2023-06-10T22:02:17;102029.53;;;17.85;72.35
75188;BME280;63762;51.334;22.108;2023-06-10T22:12:24;102041.63;;;17.71;72.38
75188;BME280;63762;51.334;22.108;2023-06-10T22:22:31;102027.48;;;17.47;72.67
75188;BME280;63762;51.334;22.108;2023-06-10T22:32:38;102033.21;;;17.33;73.12
75188;BME280;63762;51.334;22.108;2023-06-10T22:42:45;102024.13;;;17.23;73.29
75188;BME280;63762;51.334;22.108;2023-06-10T22:52:52;102033.50;;;17.09;73.85
75188;BME280;63762;51.334;22.108;2023-06-10T23:02:59;102016.97;;;17.01;73.89
75188;BME280;63762;51.334;22.108;2023-06-10T23:13:06;102018.01;;;16.89;74.31
75188;BME280;63762;51.334;22.108;2023-06-10T23:23:14;102017.20;;;16.78;74.94
75188;BME280;63762;51.334;22.108;2023-06-10T23:33:21;102006.39;;;16.67;75.23
75188;BME280;63762;51.334;22.108;2023-06-10T23:43:28;102008.16;;;16.57;75.43
75188;BME280;63762;51.334;22.108;2023-06-10T23:53:35;102015.70;;;16.42;76.20
